HAZ7764 ZPPP-ZSHC
Flight info
| Callsign | HAZ7764 |
|---|---|
| Flight time | N/A |
| Altitude | 35100 |
| Route | NODIB1Y NODIB W137 LPS A581 LIN/K0865S1130 A581 WHA R343 UPLEL W95 SAPIN A470 IGRAT IGRAT81 |
| Aircraft | B738/M-SDE2E3FGHIRWXY/LB1 |
Departure
| Time | 2026-05-05 03:50 |
|---|---|
| Airport | Kunming Changshui International Airport (ZPPP) |
Arrival
| Time | N/A |
|---|---|
| Airport | Hangzhou Xiaoshan International Airport (ZSHC) |
| Time | Latitude | Longitude | Altitude | Speed | Heading |
|---|---|---|---|---|---|
| 2026-05-05 03:46 | 25.12227 | 102.95713 | 6887 ft | 0 kts | 129° |
| 2026-05-05 03:46 | 25.12226 | 102.95714 | 6887 ft | 1 kts | 129° |
| 2026-05-05 03:47 | 25.12209 | 102.95738 | 6887 ft | 6 kts | 128° |
| 2026-05-05 03:47 | 25.12185 | 102.95771 | 6888 ft | 5 kts | 128° |
| 2026-05-05 03:47 | 25.12160 | 102.95802 | 6889 ft | 5 kts | 140° |
| 2026-05-05 03:47 | 25.12125 | 102.95813 | 6888 ft | 5 kts | 181° |
| 2026-05-05 03:48 | 25.12094 | 102.95793 | 6888 ft | 5 kts | 224° |
| 2026-05-05 03:48 | 25.12066 | 102.95766 | 6888 ft | 5 kts | 219° |
| 2026-05-05 03:48 | 25.12060 | 102.95760 | 6888 ft | 0 kts | 219° |
| 2026-05-05 03:49 | 25.11949 | 102.95664 | 6888 ft | 46 kts | 218° |
| 2026-05-05 03:49 | 25.11557 | 102.95322 | 6887 ft | 96 kts | 218° |
| 2026-05-05 03:49 | 25.10915 | 102.94763 | 6889 ft | 138 kts | 218° |
| 2026-05-05 03:50 | 25.10066 | 102.94022 | 6892 ft | 172 kts | 219° |
| 2026-05-05 03:50 | 25.09067 | 102.93124 | 7017 ft | 193 kts | 220° |
| 2026-05-05 03:50 | 25.08069 | 102.92207 | 7777 ft | 184 kts | 222° |
| 2026-05-05 03:50 | 25.07083 | 102.91275 | 8236 ft | 187 kts | 224° |
| 2026-05-05 03:51 | 25.06066 | 102.90406 | 8779 ft | 185 kts | 220° |
| 2026-05-05 03:51 | 25.04996 | 102.89527 | 9044 ft | 200 kts | 221° |
| 2026-05-05 03:51 | 25.03849 | 102.88560 | 9199 ft | 215 kts | 222° |
| 2026-05-05 03:51 | 25.02615 | 102.87510 | 9324 ft | 232 kts | 221° |
| 2026-05-05 03:52 | 25.01302 | 102.86386 | 9496 ft | 245 kts | 221° |
| 2026-05-05 03:52 | 24.99925 | 102.85201 | 9775 ft | 256 kts | 221° |
| 2026-05-05 03:52 | 24.98508 | 102.83975 | 10264 ft | 259 kts | 221° |
| 2026-05-05 03:52 | 24.97086 | 102.82744 | 10844 ft | 262 kts | 221° |
| 2026-05-05 03:53 | 24.95603 | 102.81565 | 11411 ft | 266 kts | 209° |
| 2026-05-05 03:53 | 24.93781 | 102.81082 | 11983 ft | 278 kts | 183° |
| 2026-05-05 03:53 | 24.91844 | 102.81573 | 12353 ft | 301 kts | 155° |
| 2026-05-05 03:53 | 24.90204 | 102.83155 | 12494 ft | 329 kts | 127° |
| 2026-05-05 03:54 | 24.88943 | 102.85352 | 12674 ft | 350 kts | 122° |
| 2026-05-05 03:54 | 24.87692 | 102.87739 | 12826 ft | 369 kts | 121° |
| 2026-05-05 03:54 | 24.86367 | 102.90247 | 12965 ft | 388 kts | 122° |
| 2026-05-05 03:54 | 24.84946 | 102.92835 | 13230 ft | 401 kts | 123° |
| 2026-05-05 03:55 | 24.83471 | 102.95456 | 13741 ft | 402 kts | 123° |
| 2026-05-05 03:55 | 24.82242 | 102.98225 | 14205 ft | 409 kts | 106° |
| 2026-05-05 03:55 | 24.81947 | 103.01348 | 14614 ft | 413 kts | 83° |
| 2026-05-05 03:55 | 24.82628 | 103.04384 | 15190 ft | 406 kts | 63° |
| 2026-05-05 03:56 | 24.84099 | 103.07009 | 15677 ft | 404 kts | 46° |
| 2026-05-05 03:56 | 24.86215 | 103.09029 | 16108 ft | 403 kts | 32° |
| 2026-05-05 03:56 | 24.88521 | 103.10796 | 16623 ft | 405 kts | 31° |
| 2026-05-05 03:56 | 24.90862 | 103.12546 | 17081 ft | 409 kts | 31° |
| 2026-05-05 03:57 | 24.93233 | 103.14314 | 17505 ft | 413 kts | 31° |
| 2026-05-05 03:57 | 24.95617 | 103.16104 | 17988 ft | 416 kts | 31° |
| 2026-05-05 03:57 | 24.98041 | 103.17940 | 18476 ft | 418 kts | 32° |
| 2026-05-05 03:57 | 25.00444 | 103.19774 | 18872 ft | 422 kts | 32° |
| 2026-05-05 03:58 | 25.02857 | 103.21622 | 19267 ft | 424 kts | 32° |
| 2026-05-05 03:58 | 25.05285 | 103.23488 | 19654 ft | 426 kts | 32° |
| 2026-05-05 03:58 | 25.07721 | 103.25362 | 20017 ft | 428 kts | 32° |
| 2026-05-05 03:58 | 25.10171 | 103.27248 | 20401 ft | 430 kts | 31° |
| 2026-05-05 03:59 | 25.12633 | 103.29145 | 20788 ft | 432 kts | 31° |
| 2026-05-05 03:59 | 25.15105 | 103.31049 | 21143 ft | 435 kts | 31° |
| 2026-05-05 03:59 | 25.17593 | 103.32967 | 21492 ft | 438 kts | 31° |
| 2026-05-05 03:59 | 25.20097 | 103.34899 | 21839 ft | 440 kts | 31° |
| 2026-05-05 04:00 | 25.22615 | 103.36841 | 22192 ft | 443 kts | 31° |
| 2026-05-05 04:00 | 25.25143 | 103.38793 | 22545 ft | 444 kts | 31° |
| 2026-05-05 04:00 | 25.27685 | 103.40756 | 22880 ft | 447 kts | 31° |
| 2026-05-05 04:00 | 25.30241 | 103.42731 | 23178 ft | 450 kts | 31° |
| 2026-05-05 04:01 | 25.32811 | 103.44718 | 23481 ft | 452 kts | 31° |
| 2026-05-05 04:01 | 25.35395 | 103.46717 | 23764 ft | 455 kts | 31° |
| 2026-05-05 04:01 | 25.37993 | 103.48728 | 24046 ft | 456 kts | 31° |
| 2026-05-05 04:01 | 25.40599 | 103.50747 | 24332 ft | 458 kts | 31° |
| 2026-05-05 04:02 | 25.43214 | 103.52775 | 24580 ft | 460 kts | 31° |
| 2026-05-05 04:02 | 25.45844 | 103.54814 | 24828 ft | 463 kts | 31° |
| 2026-05-05 04:02 | 25.48483 | 103.56861 | 25103 ft | 464 kts | 31° |
| 2026-05-05 04:02 | 25.51109 | 103.58956 | 25362 ft | 468 kts | 34° |
| 2026-05-05 04:03 | 25.53512 | 103.61428 | 25580 ft | 476 kts | 43° |
| 2026-05-05 04:03 | 25.54926 | 103.63296 | 25736 ft | 481 kts | 50° |
| 2026-05-05 04:03 | 25.56790 | 103.66394 | 25985 ft | 484 kts | 54° |
| 2026-05-05 04:03 | 25.58587 | 103.69562 | 26226 ft | 487 kts | 54° |
| 2026-05-05 04:04 | 25.60377 | 103.72753 | 26428 ft | 490 kts | 54° |
| 2026-05-05 04:04 | 25.62190 | 103.75961 | 26628 ft | 492 kts | 54° |
| 2026-05-05 04:04 | 25.64021 | 103.79169 | 26860 ft | 494 kts | 53° |
| 2026-05-05 04:04 | 25.65873 | 103.82383 | 27094 ft | 495 kts | 53° |
| 2026-05-05 04:05 | 25.67730 | 103.85591 | 27320 ft | 496 kts | 53° |
| 2026-05-05 04:05 | 25.69605 | 103.88824 | 27542 ft | 498 kts | 53° |
| 2026-05-05 04:05 | 25.71479 | 103.92058 | 27751 ft | 500 kts | 53° |
| 2026-05-05 04:05 | 25.73361 | 103.95310 | 27952 ft | 502 kts | 53° |
| 2026-05-05 04:06 | 25.75247 | 103.98576 | 28163 ft | 503 kts | 53° |
| 2026-05-05 04:06 | 25.77137 | 104.01851 | 28383 ft | 505 kts | 53° |
| 2026-05-05 04:06 | 25.79032 | 104.05136 | 28591 ft | 506 kts | 53° |
| 2026-05-05 04:06 | 25.80937 | 104.08426 | 28763 ft | 508 kts | 53° |
| 2026-05-05 04:07 | 25.82893 | 104.11760 | 28960 ft | 509 kts | 52° |
| 2026-05-05 04:07 | 25.84835 | 104.15047 | 29151 ft | 510 kts | 52° |
| 2026-05-05 04:07 | 25.86781 | 104.18341 | 29338 ft | 512 kts | 52° |
| 2026-05-05 04:07 | 25.88732 | 104.21649 | 29576 ft | 512 kts | 52° |
| 2026-05-05 04:08 | 25.90675 | 104.24955 | 29886 ft | 511 kts | 52° |
| 2026-05-05 04:08 | 25.92613 | 104.28259 | 30173 ft | 510 kts | 52° |
| 2026-05-05 04:08 | 25.94547 | 104.31560 | 30431 ft | 509 kts | 52° |
| 2026-05-05 04:08 | 25.96472 | 104.34849 | 30687 ft | 508 kts | 52° |
| 2026-05-05 04:09 | 25.98395 | 104.38135 | 30984 ft | 506 kts | 52° |
| 2026-05-05 04:09 | 26.00309 | 104.41406 | 31272 ft | 504 kts | 52° |
| 2026-05-05 04:09 | 26.02297 | 104.44590 | 31542 ft | 499 kts | 46° |
| 2026-05-05 04:09 | 26.04603 | 104.47431 | 31758 ft | 492 kts | 37° |
| 2026-05-05 04:10 | 26.07197 | 104.49887 | 32075 ft | 486 kts | 34° |
| 2026-05-05 04:10 | 26.09810 | 104.52258 | 32302 ft | 485 kts | 33° |
| 2026-05-05 04:10 | 26.12430 | 104.54622 | 32553 ft | 485 kts | 33° |
| 2026-05-05 04:10 | 26.15043 | 104.56994 | 32790 ft | 485 kts | 34° |
| 2026-05-05 04:11 | 26.17643 | 104.59379 | 33058 ft | 483 kts | 34° |
| 2026-05-05 04:11 | 26.20226 | 104.61766 | 33337 ft | 482 kts | 34° |
| 2026-05-05 04:11 | 26.22798 | 104.64156 | 33617 ft | 482 kts | 34° |
| 2026-05-05 04:11 | 26.25371 | 104.66554 | 33869 ft | 481 kts | 34° |
| 2026-05-05 04:12 | 26.27934 | 104.68946 | 34119 ft | 480 kts | 34° |
| 2026-05-05 04:12 | 26.30489 | 104.71332 | 34320 ft | 480 kts | 34° |
| 2026-05-05 04:12 | 26.33051 | 104.73723 | 34467 ft | 480 kts | 33° |
| 2026-05-05 04:12 | 26.35614 | 104.76115 | 34690 ft | 480 kts | 33° |
| 2026-05-05 04:13 | 26.38168 | 104.78502 | 35015 ft | 477 kts | 33° |
| 2026-05-05 04:13 | 26.40714 | 104.80884 | 35085 ft | 479 kts | 33° |
| 2026-05-05 04:13 | 26.45833 | 104.85670 | 35071 ft | 481 kts | 33° |
| 2026-05-05 04:14 | 26.50939 | 104.90455 | 35079 ft | 477 kts | 33° |
| 2026-05-05 04:14 | 26.56011 | 104.95213 | 35077 ft | 475 kts | 33° |
| 2026-05-05 04:15 | 26.61052 | 104.99953 | 35085 ft | 474 kts | 34° |
| 2026-05-05 04:15 | 26.65362 | 105.05649 | 35076 ft | 490 kts | 52° |
| 2026-05-05 04:16 | 26.68350 | 105.12576 | 35099 ft | 496 kts | 60° |
| 2026-05-05 04:16 | 26.71095 | 105.19673 | 35095 ft | 498 kts | 61° |
| 2026-05-05 04:17 | 26.73899 | 105.26816 | 35078 ft | 505 kts | 60° |
| 2026-05-05 04:17 | 26.76773 | 105.34009 | 35107 ft | 509 kts | 60° |
| 2026-05-05 04:18 | 26.79676 | 105.41241 | 35081 ft | 507 kts | 60° |
| 2026-05-05 04:18 | 26.82536 | 105.48401 | 35086 ft | 503 kts | 60° |
| 2026-05-05 04:19 | 26.85403 | 105.55577 | 35092 ft | 507 kts | 60° |
| 2026-05-05 04:19 | 26.88286 | 105.62804 | 35095 ft | 509 kts | 60° |
| 2026-05-05 04:20 | 26.91160 | 105.70034 | 35087 ft | 505 kts | 60° |
| 2026-05-05 04:20 | 26.94022 | 105.77253 | 35079 ft | 502 kts | 60° |
| 2026-05-05 04:21 | 26.96835 | 105.84351 | 35080 ft | 503 kts | 60° |
| 2026-05-05 04:21 | 26.99706 | 105.91601 | 35097 ft | 509 kts | 60° |
| 2026-05-05 04:22 | 27.02577 | 105.98877 | 35102 ft | 511 kts | 60° |
| 2026-05-05 04:22 | 27.05534 | 106.06140 | 35099 ft | 510 kts | 57° |
| 2026-05-05 04:23 | 27.08784 | 106.13207 | 35104 ft | 509 kts | 56° |
| 2026-05-05 04:23 | 27.12066 | 106.20255 | 35102 ft | 509 kts | 57° |
| 2026-05-05 04:24 | 27.15293 | 106.27326 | 35104 ft | 509 kts | 57° |
| 2026-05-05 04:25 | 27.20112 | 106.37963 | 35093 ft | 509 kts | 57° |
| 2026-05-05 04:25 | 27.23331 | 106.45045 | 35104 ft | 508 kts | 57° |
| 2026-05-05 04:26 | 27.26545 | 106.52117 | 35112 ft | 508 kts | 57° |
| 2026-05-05 04:26 | 27.29755 | 106.59192 | 35109 ft | 507 kts | 57° |
| 2026-05-05 04:27 | 27.32951 | 106.66255 | 35110 ft | 507 kts | 57° |
| 2026-05-05 04:27 | 27.36151 | 106.73334 | 35122 ft | 508 kts | 57° |
| 2026-05-05 04:28 | 27.39347 | 106.80441 | 35123 ft | 510 kts | 57° |
| 2026-05-05 04:28 | 27.42532 | 106.87565 | 35116 ft | 510 kts | 57° |
| 2026-05-05 04:29 | 27.45702 | 106.94665 | 35115 ft | 511 kts | 57° |
| 2026-05-05 04:29 | 27.48905 | 107.01822 | 35117 ft | 511 kts | 57° |
| 2026-05-05 04:30 | 27.52148 | 107.08950 | 35115 ft | 512 kts | 57° |
| 2026-05-05 04:30 | 27.55391 | 107.16088 | 35103 ft | 512 kts | 57° |
| 2026-05-05 04:31 | 27.58626 | 107.23244 | 35104 ft | 513 kts | 57° |
| 2026-05-05 04:31 | 27.61874 | 107.30464 | 35110 ft | 512 kts | 57° |
| 2026-05-05 04:32 | 27.65096 | 107.37641 | 35114 ft | 513 kts | 57° |
| 2026-05-05 04:32 | 27.68275 | 107.44734 | 35106 ft | 514 kts | 57° |
| 2026-05-05 04:33 | 27.71541 | 107.52032 | 35107 ft | 516 kts | 57° |
| 2026-05-05 04:33 | 27.74779 | 107.59280 | 35096 ft | 517 kts | 57° |
| 2026-05-05 04:34 | 27.78019 | 107.66546 | 35090 ft | 519 kts | 57° |
| 2026-05-05 04:34 | 27.81264 | 107.73840 | 35101 ft | 520 kts | 57° |
| 2026-05-05 04:35 | 27.84526 | 107.81134 | 35104 ft | 520 kts | 57° |
| 2026-05-05 04:35 | 27.87846 | 107.88388 | 35101 ft | 519 kts | 56° |
| 2026-05-05 04:36 | 27.91177 | 107.95647 | 35075 ft | 521 kts | 57° |
| 2026-05-05 04:36 | 27.94504 | 108.02935 | 35080 ft | 522 kts | 57° |
| 2026-05-05 04:37 | 27.97826 | 108.10244 | 35067 ft | 523 kts | 57° |
| 2026-05-05 04:37 | 28.01141 | 108.17556 | 35063 ft | 522 kts | 57° |
| 2026-05-05 04:38 | 28.03895 | 108.23640 | 35068 ft | 523 kts | 57° |
| 2026-05-05 04:38 | 28.07210 | 108.30971 | 35069 ft | 523 kts | 57° |
| 2026-05-05 04:39 | 28.10517 | 108.38298 | 35068 ft | 522 kts | 57° |
| 2026-05-05 04:39 | 28.13820 | 108.45629 | 35067 ft | 521 kts | 57° |
| 2026-05-05 04:40 | 28.17102 | 108.52931 | 35074 ft | 520 kts | 57° |
| 2026-05-05 04:40 | 28.20404 | 108.60284 | 35051 ft | 520 kts | 57° |
| 2026-05-05 04:41 | 28.23682 | 108.67595 | 35051 ft | 521 kts | 57° |
| 2026-05-05 04:41 | 28.26960 | 108.74927 | 35056 ft | 522 kts | 57° |
| 2026-05-05 04:42 | 28.30242 | 108.82279 | 35013 ft | 523 kts | 57° |
| 2026-05-05 04:42 | 28.33529 | 108.89647 | 35027 ft | 524 kts | 57° |
| 2026-05-05 04:43 | 28.36815 | 108.97036 | 35042 ft | 526 kts | 57° |
| 2026-05-05 04:43 | 28.40109 | 109.04460 | 35051 ft | 526 kts | 57° |
| 2026-05-05 04:44 | 28.43403 | 109.11897 | 35034 ft | 526 kts | 57° |
| 2026-05-05 04:44 | 28.46690 | 109.19320 | 35044 ft | 526 kts | 57° |
| 2026-05-05 04:45 | 28.49979 | 109.26767 | 35041 ft | 527 kts | 57° |
| 2026-05-05 04:45 | 28.53262 | 109.34220 | 35046 ft | 528 kts | 57° |
| 2026-05-05 04:46 | 28.56547 | 109.41688 | 35039 ft | 528 kts | 57° |
| 2026-05-05 04:46 | 28.59621 | 109.49311 | 35034 ft | 533 kts | 63° |
| 2026-05-05 04:47 | 28.62235 | 109.57212 | 35021 ft | 534 kts | 65° |
| 2026-05-05 04:47 | 28.64877 | 109.65099 | 35025 ft | 534 kts | 64° |
| 2026-05-05 04:48 | 28.67631 | 109.72929 | 35033 ft | 532 kts | 62° |
| 2026-05-05 04:48 | 28.70447 | 109.80711 | 35028 ft | 531 kts | 62° |
| 2026-05-05 04:49 | 28.73250 | 109.88492 | 35041 ft | 530 kts | 63° |
| 2026-05-05 04:49 | 28.76029 | 109.96268 | 35049 ft | 530 kts | 63° |
| 2026-05-05 04:50 | 28.78800 | 110.04057 | 35040 ft | 531 kts | 63° |
| 2026-05-05 04:50 | 28.81570 | 110.11860 | 35039 ft | 532 kts | 63° |
| 2026-05-05 04:51 | 28.84344 | 110.19687 | 35042 ft | 533 kts | 63° |
| 2026-05-05 04:51 | 28.87120 | 110.27541 | 35039 ft | 534 kts | 63° |
| 2026-05-05 04:52 | 28.89894 | 110.35400 | 35048 ft | 533 kts | 63° |
| 2026-05-05 04:52 | 28.92642 | 110.43212 | 35045 ft | 530 kts | 63° |
| 2026-05-05 04:53 | 28.95418 | 110.51113 | 35044 ft | 534 kts | 64° |
| 2026-05-05 04:53 | 28.98189 | 110.59014 | 35039 ft | 538 kts | 64° |
| 2026-05-05 04:54 | 29.00966 | 110.66955 | 35012 ft | 536 kts | 64° |
| 2026-05-05 04:54 | 29.03714 | 110.74822 | 35021 ft | 531 kts | 64° |
| 2026-05-05 04:55 | 29.06488 | 110.82642 | 35039 ft | 531 kts | 64° |
| 2026-05-05 04:55 | 29.09272 | 110.90468 | 35023 ft | 532 kts | 64° |
| 2026-05-05 04:56 | 29.12051 | 110.98314 | 35025 ft | 533 kts | 64° |
| 2026-05-05 04:56 | 29.14824 | 111.06177 | 35021 ft | 534 kts | 64° |
| 2026-05-05 04:57 | 29.17600 | 111.14069 | 35020 ft | 535 kts | 64° |
| 2026-05-05 04:57 | 29.20376 | 111.21978 | 35023 ft | 535 kts | 64° |
| 2026-05-05 04:58 | 29.23146 | 111.29889 | 35020 ft | 535 kts | 64° |
| 2026-05-05 04:58 | 29.25915 | 111.37811 | 35019 ft | 536 kts | 64° |
| 2026-05-05 04:59 | 29.28679 | 111.45737 | 35016 ft | 537 kts | 64° |
| 2026-05-05 04:59 | 29.31448 | 111.53694 | 34995 ft | 537 kts | 65° |
| 2026-05-05 05:00 | 29.34208 | 111.61643 | 35007 ft | 537 kts | 65° |
| 2026-05-05 05:00 | 29.37605 | 111.69178 | 35035 ft | 528 kts | 51° |
| 2026-05-05 05:01 | 29.41685 | 111.76157 | 35007 ft | 528 kts | 50° |
| 2026-05-05 05:01 | 29.45789 | 111.83145 | 35017 ft | 529 kts | 51° |
| 2026-05-05 05:02 | 29.49838 | 111.90190 | 35020 ft | 529 kts | 51° |
| 2026-05-05 05:02 | 29.53867 | 111.97279 | 35012 ft | 530 kts | 52° |
| 2026-05-05 05:03 | 29.57925 | 112.04428 | 35016 ft | 531 kts | 52° |
| 2026-05-05 05:03 | 29.61958 | 112.11536 | 35014 ft | 531 kts | 52° |
| 2026-05-05 05:04 | 29.65965 | 112.18607 | 35023 ft | 532 kts | 52° |
| 2026-05-05 05:04 | 29.70023 | 112.25783 | 35028 ft | 532 kts | 52° |
| 2026-05-05 05:05 | 29.74035 | 112.32890 | 35024 ft | 533 kts | 52° |
| 2026-05-05 05:05 | 29.78063 | 112.40065 | 35019 ft | 534 kts | 52° |
| 2026-05-05 05:06 | 29.82080 | 112.47252 | 35030 ft | 534 kts | 52° |
| 2026-05-05 05:06 | 29.86116 | 112.54484 | 35021 ft | 533 kts | 52° |
| 2026-05-05 05:07 | 29.90121 | 112.61671 | 35020 ft | 532 kts | 52° |
| 2026-05-05 05:07 | 29.94108 | 112.68835 | 35019 ft | 531 kts | 52° |
| 2026-05-05 05:08 | 29.98089 | 112.76003 | 35021 ft | 530 kts | 52° |
| 2026-05-05 05:08 | 30.02051 | 112.83148 | 35012 ft | 528 kts | 53° |
| 2026-05-05 05:09 | 30.06000 | 112.90284 | 35027 ft | 527 kts | 53° |
| 2026-05-05 05:09 | 30.09943 | 112.97420 | 35021 ft | 526 kts | 53° |
| 2026-05-05 05:10 | 30.13871 | 113.04543 | 35021 ft | 525 kts | 53° |
| 2026-05-05 05:10 | 30.17788 | 113.11659 | 35024 ft | 525 kts | 53° |
| 2026-05-05 05:11 | 30.21690 | 113.18760 | 35025 ft | 524 kts | 53° |
| 2026-05-05 05:11 | 30.25655 | 113.25863 | 35028 ft | 525 kts | 52° |
| 2026-05-05 05:12 | 30.29632 | 113.32916 | 35030 ft | 526 kts | 52° |
| 2026-05-05 05:12 | 30.33619 | 113.40013 | 35030 ft | 526 kts | 52° |
| 2026-05-05 05:13 | 30.37591 | 113.47118 | 35035 ft | 526 kts | 52° |
| 2026-05-05 05:13 | 30.40909 | 113.53066 | 35024 ft | 526 kts | 52° |
| 2026-05-05 05:14 | 30.44866 | 113.60171 | 35024 ft | 525 kts | 52° |
| 2026-05-05 05:14 | 30.48822 | 113.67285 | 35021 ft | 524 kts | 52° |
| 2026-05-05 05:15 | 30.52754 | 113.74369 | 35028 ft | 522 kts | 52° |
| 2026-05-05 05:15 | 30.56679 | 113.81452 | 35024 ft | 521 kts | 52° |
| 2026-05-05 05:16 | 30.60593 | 113.88514 | 35032 ft | 519 kts | 52° |
| 2026-05-05 05:16 | 30.64501 | 113.95560 | 35031 ft | 518 kts | 52° |